KNQA/NQA METAR and TAF weather

Enter ICAO airport designator
Station Type Date Time Source
KNQA METAR 2020/01/23 09:15 UTC NOAA

KNQA 230915Z AUTO 12005KT 10SM SCT027 SCT033 OVC050 02/M01 A3011 RMK A01


Station Type Date Time Source
KNQA Decoded METAR 2020/01/23 09:15 UTC NOAA

Millington, Millington Municipal Airport, TN, United States (KNQA) 35-21-24N 089-52-13W
Jan 23, 2020 - 04:15 AM EST / 2020.01.23 0915 UTC
Wind: from the ESE (120 degrees) at 6 MPH (5 KT):0
Visibility: 10 mile(s):0
Sky conditions: overcast
Temperature: 35 F (2 C)
Windchill: 30 F (-1 C):1
Dew Point: 30 F (-1 C)
Relative Humidity: 80%
Pressure (altimeter): 30.11 in. Hg (1019 hPa)
ob: KNQA 230915Z AUTO 12005KT 10SM SCT027 SCT033 OVC050 02/M01 A3011 RMK A01
cycle: 9

Station Type Date Time Source
KNQA TAF UTC NOAA

Error!

Example: see airport list